Time;durP1;ratioP1;P1;durP2;ratioP2;P2;SDS_P1;SDS_P2;PMS_P1;PMS_P2;Temp;Humidity;BMP_temperature;BMP_pressure;BME280_temperature;BME280_humidity;BME280_pressure;Samples;Min_cycle;Max_cycle;Signal;HPM_P1;HPM_P2
2023/12/23 00:02:30;;;;;;;0.55;0.30;;;;;;;0.98;100.00;98519.16;5608990;31;34083;-71
2023/12/23 00:05:33;;;;;;;0.65;0.30;;;;;;;1.00;100.00;98532.91;5608454;31;33928;-71
2023/12/23 00:08:36;;;;;;;0.60;0.30;;;;;;;0.99;100.00;98535.66;5608924;31;35271;-70
2023/12/23 00:11:39;;;;;;;0.50;0.37;;;;;;;0.98;100.00;98542.66;5608581;31;35003;-72
2023/12/23 00:14:41;;;;;;;0.52;0.30;;;;;;;0.96;100.00;98546.41;5608630;31;34157;-71
2023/12/23 00:17:45;;;;;;;0.50;0.30;;;;;;;0.91;100.00;98527.78;5608553;31;34035;-71
2023/12/23 00:20:52;;;;;;;0.30;0.30;;;;;;;0.88;100.00;98523.66;5608850;31;34096;-71
2023/12/23 00:23:55;;;;;;;1.10;0.30;;;;;;;0.85;100.00;98523.97;5608546;31;34097;-71
2023/12/23 00:26:58;;;;;;;0.55;0.25;;;;;;;0.90;100.00;98516.50;5607698;31;35080;-70
2023/12/23 00:30:01;;;;;;;0.50;0.30;;;;;;;0.88;100.00;98508.00;5608473;31;34323;-72
2023/12/23 00:33:05;;;;;;;0.30;0.28;;;;;;;0.81;100.00;98501.78;5607706;31;34018;-71
2023/12/23 00:36:08;;;;;;;0.43;0.30;;;;;;;0.78;100.00;98491.63;5607444;31;34079;-71
2023/12/23 00:39:12;;;;;;;1.17;0.30;;;;;;;0.79;100.00;98512.34;5608107;31;32779;-71
2023/12/23 00:42:16;;;;;;;0.50;0.37;;;;;;;0.88;100.00;98485.34;5608305;31;32652;-72
2023/12/23 00:45:21;;;;;;;0.57;0.30;;;;;;;0.87;100.00;98462.00;5607482;31;34039;-72
2023/12/23 00:48:24;;;;;;;0.43;0.25;;;;;;;0.82;100.00;98451.22;5608160;31;33906;-72
2023/12/23 00:51:27;;;;;;;0.50;0.30;;;;;;;0.78;100.00;98468.94;5608070;31;34051;-72
2023/12/23 00:54:30;;;;;;;0.73;0.40;;;;;;;0.82;100.00;98478.09;5608114;31;34766;-72
2023/12/23 00:57:33;;;;;;;0.77;0.30;;;;;;;0.88;100.00;98484.50;5607320;31;35034;-72
2023/12/23 01:00:38;;;;;;;0.77;0.30;;;;;;;0.96;100.00;98497.63;5607865;31;34149;-72
2023/12/23 01:03:43;;;;;;;0.50;0.30;;;;;;;1.01;100.00;98511.06;5608282;31;34032;-72
2023/12/23 01:06:46;;;;;;;0.40;0.20;;;;;;;1.07;100.00;98504.38;5607861;31;34089;-71
2023/12/23 01:09:49;;;;;;;2.40;0.30;;;;;;;1.04;100.00;98502.91;5607580;31;35033;-72
2023/12/23 01:12:52;;;;;;;0.15;0.10;;;;;;;1.01;100.00;98534.56;5607498;31;34765;-72
2023/12/23 01:15:55;;;;;;;0.37;0.20;;;;;;;1.00;100.00;98559.00;5607620;31;34007;-71
2023/12/23 01:18:58;;;;;;;0.75;0.30;;;;;;;1.02;100.00;98571.91;5606918;31;34083;-72
2023/12/23 01:22:01;;;;;;;0.30;0.30;;;;;;;0.98;100.00;98576.63;5606801;31;34100;-72
2023/12/23 01:25:05;;;;;;;0.20;0.20;;;;;;;0.99;100.00;98546.94;5607478;31;34086;-72
2023/12/23 01:28:07;;;;;;;0.88;0.43;;;;;;;0.99;100.00;98551.31;5607466;31;34802;-72
2023/12/23 01:31:11;;;;;;;0.30;0.25;;;;;;;0.97;100.00;98564.53;5607376;31;34092;-72
2023/12/23 01:34:13;;;;;;;2.05;0.40;;;;;;;0.95;100.00;98576.94;5607501;31;33983;-72
2023/12/23 01:37:16;;;;;;;0.40;0.30;;;;;;;0.99;100.00;98574.81;5606515;31;34006;-73
2023/12/23 01:40:19;;;;;;;0.85;0.43;;;;;;;1.03;100.00;98558.69;5607020;31;34993;-72
2023/12/23 01:43:22;;;;;;;0.40;0.30;;;;;;;1.02;100.00;98561.47;5607129;31;34014;-72
2023/12/23 01:46:25;;;;;;;0.55;0.40;;;;;;;1.04;100.00;98546.47;5609171;31;34693;-72
2023/12/23 01:49:30;;;;;;;0.30;0.30;;;;;;;1.00;100.00;98530.28;5609995;31;34113;-72
2023/12/23 01:52:38;;;;;;;1.42;0.40;;;;;;;1.04;100.00;98526.41;5597027;31;34115;-71
2023/12/23 01:55:41;;;;;;;0.30;0.30;;;;;;;1.10;100.00;98533.62;5610028;31;34251;-72
2023/12/23 01:58:45;;;;;;;0.47;0.30;;;;;;;1.02;100.00;98543.19;5609162;31;34997;-71
2023/12/23 02:01:49;;;;;;;0.57;0.25;;;;;;;0.97;100.00;98527.97;5609869;31;34027;-72
2023/12/23 02:04:52;;;;;;;0.35;0.20;;;;;;;0.96;100.00;98544.63;5609920;31;34119;-71
2023/12/23 02:07:55;;;;;;;0.70;0.30;;;;;;;0.96;100.00;98564.69;5609895;31;34113;-72
2023/12/23 02:11:09;;;;;;;0.37;0.20;;;;;;;0.94;100.00;98600.56;5609653;31;34156;-72
2023/12/23 02:14:20;;;;;;;0.65;0.20;;;;;;;0.87;100.00;98602.97;5609615;31;34128;-72
2023/12/23 02:17:23;;;;;;;0.20;0.20;;;;;;;0.85;100.00;98608.34;5609732;31;34998;-72
2023/12/23 02:20:27;;;;;;;0.20;0.20;;;;;;;0.79;100.00;98606.31;5610063;31;32426;-72
2023/12/23 02:23:30;;;;;;;0.47;0.28;;;;;;;0.87;100.00;98598.53;5609014;31;34775;-72
2023/12/23 02:26:36;;;;;;;0.37;0.10;;;;;;;0.87;100.00;98600.38;5609717;31;34795;-72
2023/12/23 02:29:41;;;;;;;0.10;0.10;;;;;;;0.92;100.00;98584.25;5608960;31;34233;-72
2023/12/23 02:32:45;;;;;;;0.10;0.10;;;;;;;0.93;100.00;98578.84;5609560;31;34072;-72
2023/12/23 02:35:52;;;;;;;0.10;0.10;;;;;;;0.97;100.00;98569.75;5609620;31;34038;-72
2023/12/23 02:38:57;;;;;;;0.30;0.10;;;;;;;1.04;100.00;98580.41;5610007;31;34020;-73
2023/12/23 02:42:00;;;;;;;0.05;0.03;;;;;;;1.13;100.00;98608.22;5609478;31;34344;-74
2023/12/23 02:45:04;;;;;;;0.30;0.10;;;;;;;1.22;100.00;98602.09;5609578;31;34036;-72
2023/12/23 02:48:07;;;;;;;0.57;0.10;;;;;;;1.26;100.00;98585.97;5609511;31;34721;-72
2023/12/23 02:51:11;;;;;;;0.13;0.10;;;;;;;1.39;100.00;98575.13;5609398;31;34071;-72
2023/12/23 02:54:13;;;;;;;0.95;0.25;;;;;;;1.48;100.00;98581.22;5609732;31;34767;-71
2023/12/23 02:57:17;;;;;;;0.20;0.20;;;;;;;1.49;100.00;98594.12;5608644;31;35129;-71
2023/12/23 03:00:20;;;;;;;0.20;0.10;;;;;;;1.55;100.00;98613.59;5609632;31;34082;-71
2023/12/23 03:03:22;;;;;;;0.55;0.22;;;;;;;1.56;100.00;98615.22;5609770;31;34085;-71
2023/12/23 03:06:26;;;;;;;0.50;0.30;;;;;;;1.55;100.00;98634.50;5609333;31;34792;-71
2023/12/23 03:09:29;;;;;;;0.20;0.20;;;;;;;1.54;100.00;98633.69;5609240;31;34019;-72
2023/12/23 03:12:31;;;;;;;0.65;0.28;;;;;;;1.50;100.00;98634.16;5608256;31;34386;-72
2023/12/23 03:15:35;;;;;;;0.70;0.22;;;;;;;1.49;100.00;98643.78;5609610;31;34098;-73
2023/12/23 03:18:37;;;;;;;0.30;0.17;;;;;;;1.50;100.00;98628.94;5609248;31;34121;-70
2023/12/23 03:21:45;;;;;;;0.20;0.20;;;;;;;1.50;100.00;98648.00;5609118;31;34810;-70
2023/12/23 03:24:48;;;;;;;0.20;0.20;;;;;;;1.56;100.00;98654.44;5608699;31;34671;-71
2023/12/23 03:27:51;;;;;;;0.30;0.15;;;;;;;1.52;100.00;98640.84;5609488;31;34066;-71
2023/12/23 03:30:54;;;;;;;0.50;0.20;;;;;;;1.49;100.00;98684.75;5608428;31;33990;-71
2023/12/23 03:34:04;;;;;;;0.50;0.20;;;;;;;1.45;100.00;98706.94;5609002;31;35028;-72
2023/12/23 03:37:07;;;;;;;0.20;0.10;;;;;;;1.37;100.00;98718.13;5609103;31;34612;-71
2023/12/23 03:40:11;;;;;;;0.30;0.20;;;;;;;1.28;100.00;98713.81;5609056;31;34117;-71
2023/12/23 03:43:14;;;;;;;0.25;0.17;;;;;;;1.12;100.00;98714.47;5608772;31;34416;-72
2023/12/23 03:46:19;;;;;;;0.30;0.10;;;;;;;1.05;100.00;98699.56;5608814;31;34140;-71
2023/12/23 03:49:22;;;;;;;0.10;0.10;;;;;;;0.95;100.00;98681.34;5608868;31;34431;-72
2023/12/23 03:52:25;;;;;;;0.20;0.20;;;;;;;0.91;100.00;98666.97;5608897;31;34104;-73
2023/12/23 03:55:32;;;;;;;0.17;0.17;;;;;;;0.92;100.00;98657.34;5609236;31;34013;-72
2023/12/23 03:58:35;;;;;;;0.30;0.20;;;;;;;0.96;100.00;98654.28;5608946;31;33973;-72
2023/12/23 04:01:38;;;;;;;0.13;0.10;;;;;;;1.04;100.00;98658.75;5607992;31;34742;-72
2023/12/23 04:04:42;;;;;;;0.43;0.28;;;;;;;1.08;100.00;98666.13;5609127;31;34791;-73
2023/12/23 04:07:48;;;;;;;0.65;0.20;;;;;;;1.10;100.00;98666.81;5608295;31;34128;-72
2023/12/23 04:10:51;;;;;;;0.20;0.20;;;;;;;1.10;100.00;98658.16;5608148;31;34027;-72
2023/12/23 04:13:54;;;;;;;0.55;0.30;;;;;;;1.05;100.00;98660.41;5608545;31;34178;-71
2023/12/23 04:16:57;;;;;;;0.37;0.28;;;;;;;1.02;100.00;98647.62;5608522;31;34129;-72
2023/12/23 04:20:00;;;;;;;0.22;0.22;;;;;;;1.00;100.00;98629.50;5608606;31;34018;-71
2023/12/23 04:23:04;;;;;;;0.85;0.30;;;;;;;1.04;100.00;98630.03;5594813;31;34789;-72
2023/12/23 04:26:08;;;;;;;0.50;0.30;;;;;;;1.07;100.00;98624.50;5608886;31;33984;-72
2023/12/23 04:29:12;;;;;;;0.47;0.30;;;;;;;1.09;100.00;98614.72;5608543;31;33985;-72
2023/12/23 04:32:15;;;;;;;0.80;0.35;;;;;;;1.10;100.00;98609.38;5608526;31;34100;-72
2023/12/23 04:35:18;;;;;;;0.45;0.40;;;;;;;1.16;100.00;98616.56;5608287;31;34785;-72
2023/12/23 04:38:21;;;;;;;0.82;0.32;;;;;;;1.19;100.00;98612.84;5608672;31;34023;-72
2023/12/23 04:41:24;;;;;;;0.50;0.30;;;;;;;1.28;100.00;98625.00;5608557;31;33969;-71
2023/12/23 04:44:27;;;;;;;0.50;0.20;;;;;;;1.34;100.00;98650.53;5608096;31;34242;-71
2023/12/23 04:47:31;;;;;;;0.60;0.30;;;;;;;1.33;100.00;98667.16;5608136;31;34034;-71
2023/12/23 04:50:34;;;;;;;0.47;0.30;;;;;;;1.29;100.00;98639.72;5608125;31;34099;-70
2023/12/23 04:53:37;;;;;;;0.22;0.20;;;;;;;1.26;100.00;98671.34;5608322;31;34699;-70
2023/12/23 04:56:40;;;;;;;0.60;0.30;;;;;;;1.25;100.00;98674.94;5608269;31;34058;-70
2023/12/23 04:59:43;;;;;;;0.57;0.30;;;;;;;1.22;100.00;98663.00;5607505;31;34026;-69
2023/12/23 05:02:46;;;;;;;0.43;0.30;;;;;;;1.26;100.00;98660.88;5607801;31;33962;-70
2023/12/23 05:05:50;;;;;;;0.70;0.40;;;;;;;1.22;100.00;98688.28;5607788;31;34693;-69
2023/12/23 05:08:53;;;;;;;0.43;0.30;;;;;;;1.22;100.00;98686.50;5607810;31;34281;-70
2023/12/23 05:11:56;;;;;;;0.55;0.30;;;;;;;1.24;100.00;98681.97;5607522;31;34096;-71
2023/12/23 05:15:00;;;;;;;0.20;0.20;;;;;;;1.26;100.00;98715.75;5607525;31;34318;-69
2023/12/23 05:18:04;;;;;;;1.98;0.30;;;;;;;1.27;100.00;98728.66;5606743;31;34113;-70
2023/12/23 05:21:07;;;;;;;0.77;0.22;;;;;;;1.27;100.00;98730.44;5609220;31;34703;-70
2023/12/23 05:24:11;;;;;;;0.20;0.20;;;;;;;1.30;100.00;98753.69;5610258;31;34084;-69
2023/12/23 05:27:14;;;;;;;0.52;0.20;;;;;;;1.37;100.00;98753.88;5610085;31;34109;-69
2023/12/23 05:30:17;;;;;;;0.30;0.30;;;;;;;1.36;100.00;98786.19;5610464;31;34058;-69
2023/12/23 05:33:24;;;;;;;1.10;0.40;;;;;;;1.43;100.00;98790.72;5610060;31;35095;-69
2023/12/23 05:36:28;;;;;;;0.65;0.30;;;;;;;1.61;100.00;98795.91;5609374;31;34780;-69
2023/12/23 05:39:31;;;;;;;1.23;0.40;;;;;;;1.63;100.00;98804.44;5610257;31;34247;-68
2023/12/23 05:42:34;;;;;;;0.50;0.32;;;;;;;1.77;100.00;98801.31;5609949;31;34158;-70
2023/12/23 05:45:37;;;;;;;1.48;0.30;;;;;;;1.80;100.00;98801.00;5609862;31;34295;-70
2023/12/23 05:48:40;;;;;;;1.02;0.30;;;;;;;1.78;100.00;98809.97;5609247;31;34264;-71
2023/12/23 05:51:43;;;;;;;0.70;0.35;;;;;;;1.72;100.00;98820.06;5610136;31;34051;-69
2023/12/23 05:54:47;;;;;;;0.95;0.40;;;;;;;1.70;100.00;98831.62;5609999;31;34033;-69
2023/12/23 05:57:50;;;;;;;1.52;0.40;;;;;;;1.69;100.00;98830.00;5610188;31;34023;-72
2023/12/23 06:00:53;;;;;;;1.45;0.50;;;;;;;1.67;100.00;98847.59;5609892;31;35512;-69
2023/12/23 06:03:56;;;;;;;1.30;0.40;;;;;;;1.73;100.00;98847.03;5609953;31;34134;-70
2023/12/23 06:06:59;;;;;;;1.60;0.47;;;;;;;1.69;100.00;98841.25;5609915;31;34028;-70
2023/12/23 06:10:04;;;;;;;1.08;0.45;;;;;;;1.69;100.00;98863.97;5609832;31;34215;-70
2023/12/23 06:13:07;;;;;;;4.60;0.40;;;;;;;1.75;100.00;98845.06;5609685;31;34275;-70
2023/12/23 06:16:10;;;;;;;1.45;0.40;;;;;;;1.70;100.00;98855.13;5609677;31;34223;-69
2023/12/23 06:19:13;;;;;;;1.23;0.40;;;;;;;1.71;100.00;98854.19;5609743;31;34707;-69
2023/12/23 06:22:16;;;;;;;2.00;0.50;;;;;;;1.69;100.00;98901.38;5609684;31;34179;-68
2023/12/23 06:25:19;;;;;;;1.45;0.40;;;;;;;1.60;100.00;98844.75;5609617;31;34736;-68
2023/12/23 06:28:22;;;;;;;1.02;0.50;;;;;;;1.58;100.00;98849.31;5608869;31;34135;-68
2023/12/23 06:31:25;;;;;;;0.52;0.40;;;;;;;1.54;100.00;98823.62;5608705;31;34128;-68
2023/12/23 06:34:28;;;;;;;1.70;0.30;;;;;;;1.56;100.00;98829.53;5608822;31;34784;-69
2023/12/23 06:37:31;;;;;;;1.17;0.47;;;;;;;1.53;100.00;98848.13;5609777;31;33981;-69
2023/12/23 06:40:33;;;;;;;1.48;0.50;;;;;;;1.55;100.00;98872.34;5609423;31;34790;-70
2023/12/23 06:43:36;;;;;;;2.28;0.40;;;;;;;1.56;100.00;98880.00;5609506;31;34114;-70
2023/12/23 06:46:53;;;;;;;1.65;0.55;;;;;;;1.62;100.00;98889.88;5609347;31;34176;-70
2023/12/23 06:49:56;;;;;;;1.40;0.50;;;;;;;1.58;100.00;98906.00;5609874;31;33986;-70
2023/12/23 06:52:59;;;;;;;0.45;0.30;;;;;;;1.58;100.00;98916.47;5609404;31;33720;-73
2023/12/23 06:56:05;;;;;;;1.37;0.30;;;;;;;1.64;100.00;98905.44;5609333;31;34144;-73
2023/12/23 06:59:12;;;;;;;1.15;0.30;;;;;;;1.67;100.00;98928.63;5609245;31;34890;-74
2023/12/23 07:02:15;;;;;;;0.30;0.30;;;;;;;1.71;100.00;98938.66;5609222;31;34656;-72
2023/12/23 07:05:18;;;;;;;0.68;0.30;;;;;;;1.90;100.00;98927.25;5609380;31;34709;-73
2023/12/23 07:08:21;;;;;;;0.75;0.40;;;;;;;2.02;100.00;98931.31;5609255;31;34670;-72
2023/12/23 07:11:24;;;;;;;2.25;0.35;;;;;;;2.02;100.00;98920.84;5609672;31;33994;-73
2023/12/23 07:14:27;;;;;;;0.68;0.40;;;;;;;2.16;100.00;98945.66;5609265;31;34679;-73
2023/12/23 07:17:30;;;;;;;1.70;0.37;;;;;;;2.28;100.00;98938.38;5608965;31;34261;-75
2023/12/23 07:20:43;;;;;;;1.02;0.35;;;;;;;2.31;100.00;98949.41;5609588;31;34698;-72
2023/12/23 07:23:46;;;;;;;0.47;0.30;;;;;;;2.38;100.00;98958.28;5608999;31;33539;-73
2023/12/23 07:26:49;;;;;;;0.85;0.30;;;;;;;2.45;100.00;98971.59;5608982;31;34006;-74
2023/12/23 07:29:52;;;;;;;0.60;0.30;;;;;;;2.46;100.00;98979.31;5609076;31;34082;-73
2023/12/23 07:32:55;;;;;;;1.12;0.30;;;;;;;2.54;100.00;98995.06;5608118;31;34019;-74
2023/12/23 07:35:58;;;;;;;0.90;0.40;;;;;;;2.54;100.00;99012.56;5609168;31;34269;-74
2023/12/23 07:39:01;;;;;;;1.08;0.50;;;;;;;2.58;100.00;99013.91;5609024;31;33960;-73
2023/12/23 07:42:04;;;;;;;1.90;0.40;;;;;;;2.63;100.00;99041.28;5608077;31;34396;-73
2023/12/23 07:45:08;;;;;;;1.77;0.50;;;;;;;2.70;100.00;99041.50;5608574;31;34124;-72
2023/12/23 07:48:11;;;;;;;0.32;0.25;;;;;;;2.71;100.00;99027.44;5608562;31;34234;-76
2023/12/23 07:51:14;;;;;;;1.37;0.50;;;;;;;2.74;100.00;99034.16;5608849;31;34103;-73
2023/12/23 07:54:18;;;;;;;1.60;0.50;;;;;;;2.71;100.00;99040.53;5608308;31;34373;-73
2023/12/23 07:57:21;;;;;;;1.30;0.60;;;;;;;2.73;100.00;99067.38;5608932;31;34127;-73
2023/12/23 08:00:24;;;;;;;2.22;0.62;;;;;;;2.75;100.00;99072.47;5608608;31;35105;-73
2023/12/23 08:03:27;;;;;;;1.70;0.55;;;;;;;2.75;100.00;99080.34;5608361;31;34658;-74
2023/12/23 08:06:30;;;;;;;1.58;0.45;;;;;;;2.80;100.00;99099.06;5608483;31;35062;-75
2023/12/23 08:09:34;;;;;;;2.40;0.68;;;;;;;2.81;100.00;99092.84;5608600;31;34076;-74
2023/12/23 08:12:37;;;;;;;2.85;0.75;;;;;;;2.94;100.00;99116.84;5608542;31;34716;-74
2023/12/23 08:15:40;;;;;;;1.85;0.60;;;;;;;2.92;100.00;99124.84;5608192;31;34220;-75
2023/12/23 08:18:45;;;;;;;2.65;0.60;;;;;;;2.97;100.00;99137.50;5608213;31;35684;-73
2023/12/23 08:21:48;;;;;;;1.90;0.50;;;;;;;3.02;100.00;99149.19;5608316;31;34091;-74
2023/12/23 08:24:51;;;;;;;0.93;0.50;;;;;;;3.05;100.00;99150.66;5608171;31;34782;-73
2023/12/23 08:27:54;;;;;;;1.25;0.60;;;;;;;3.02;100.00;99153.59;5608271;31;34083;-74
2023/12/23 08:30:57;;;;;;;2.62;0.70;;;;;;;3.02;100.00;99164.06;5607801;31;34194;-73
2023/12/23 08:33:59;;;;;;;3.33;0.80;;;;;;;2.96;100.00;99164.66;5607757;31;34090;-73
2023/12/23 08:37:03;;;;;;;3.55;0.85;;;;;;;2.97;100.00;99161.06;5608363;31;34231;-72
2023/12/23 08:40:06;;;;;;;1.52;0.60;;;;;;;3.06;100.00;99170.66;5607884;31;34156;-72
2023/12/23 08:43:11;;;;;;;2.80;0.70;;;;;;;3.07;100.00;99172.31;5607393;31;34863;-73
2023/12/23 08:46:15;;;;;;;2.42;0.90;;;;;;;3.17;100.00;99167.81;5608045;31;34091;-73
2023/12/23 08:49:18;;;;;;;3.92;0.90;;;;;;;3.18;100.00;99166.03;5607319;31;34458;-72
2023/12/23 08:52:21;;;;;;;4.00;0.80;;;;;;;3.15;100.00;99172.38;5607693;31;33933;-73
2023/12/23 08:55:24;;;;;;;2.72;0.80;;;;;;;3.17;100.00;99175.69;5608564;31;34200;-71
2023/12/23 08:58:27;;;;;;;2.65;0.90;;;;;;;3.11;100.00;99189.38;5610109;31;33965;-73
2023/12/23 09:01:30;;;;;;;1.90;0.90;;;;;;;3.12;100.00;99196.28;5610326;31;34958;-73
2023/12/23 09:04:34;;;;;;;2.58;0.80;;;;;;;3.22;100.00;99191.78;5609355;31;34551;-73
2023/12/23 09:07:36;;;;;;;2.47;0.77;;;;;;;3.15;100.00;99197.78;5610127;31;34141;-73
2023/12/23 09:10:39;;;;;;;2.90;0.80;;;;;;;3.29;100.00;99200.69;5609948;31;33930;-72
2023/12/23 09:13:42;;;;;;;2.33;0.75;;;;;;;3.22;100.00;99201.44;5609844;31;34677;-73
2023/12/23 09:16:45;;;;;;;3.53;0.85;;;;;;;3.29;100.00;99219.03;5610270;31;34251;-73
2023/12/23 09:19:48;;;;;;;2.70;0.85;;;;;;;3.22;100.00;99212.75;5609837;31;33764;-73
2023/12/23 09:22:51;;;;;;;3.20;0.90;;;;;;;3.34;100.00;99215.97;5609733;31;35088;-74
2023/12/23 09:25:54;;;;;;;2.67;0.95;;;;;;;3.30;100.00;99204.12;5608770;31;34639;-73
2023/12/23 09:28:57;;;;;;;4.47;0.90;;;;;;;3.28;100.00;99208.72;5609590;31;34034;-73
2023/12/23 09:32:00;;;;;;;2.92;1.00;;;;;;;3.36;100.00;99221.88;5609876;31;34023;-72
2023/12/23 09:35:04;;;;;;;2.55;1.00;;;;;;;3.35;100.00;99217.59;5609694;31;34487;-73
2023/12/23 09:38:10;;;;;;;2.85;0.90;;;;;;;3.23;100.00;99203.91;5609595;31;34152;-73
2023/12/23 09:41:14;;;;;;;2.90;0.90;;;;;;;3.27;100.00;99207.87;5609431;31;33948;-73
2023/12/23 09:44:17;;;;;;;2.35;0.80;;;;;;;3.39;100.00;99190.94;5609287;31;33993;-73
2023/12/23 09:47:20;;;;;;;3.53;1.20;;;;;;;3.33;100.00;99193.34;5609519;31;34714;-73
2023/12/23 09:50:24;;;;;;;4.05;1.05;;;;;;;3.27;100.00;99193.94;5609554;31;34395;-73
2023/12/23 09:53:27;;;;;;;4.20;1.15;;;;;;;3.26;100.00;99189.69;5609790;31;34785;-73
2023/12/23 09:56:30;;;;;;;2.87;1.00;;;;;;;3.33;100.00;99194.19;5609010;31;33945;-73
2023/12/23 09:59:34;;;;;;;4.15;1.10;;;;;;;3.35;100.00;99212.34;5608967;31;34626;-73
2023/12/23 10:02:37;;;;;;;4.43;1.62;;;;;;;3.26;100.00;99221.13;5609554;31;34098;-73
2023/12/23 10:05:43;;;;;;;4.28;1.10;;;;;;;3.19;100.00;99222.72;5609210;31;34168;-73
2023/12/23 10:08:48;;;;;;;5.05;1.40;;;;;;;3.09;100.00;99222.78;5609326;31;34223;-73
2023/12/23 10:11:51;;;;;;;3.17;1.05;;;;;;;3.05;100.00;99234.50;5608655;31;34659;-73
2023/12/23 10:14:54;;;;;;;4.57;1.17;;;;;;;3.06;100.00;99226.50;5609160;31;34259;-74
2023/12/23 10:17:58;;;;;;;4.68;1.05;;;;;;;3.08;100.00;99231.59;5609601;31;34113;-73
2023/12/23 10:21:01;;;;;;;5.40;1.10;;;;;;;3.05;100.00;99224.84;5609214;31;34518;-73
2023/12/23 10:24:04;;;;;;;4.75;1.30;;;;;;;3.04;100.00;99220.59;5609513;31;34392;-74
2023/12/23 10:27:07;;;;;;;3.25;1.00;;;;;;;2.97;100.00;99229.19;5609371;31;35169;-73
2023/12/23 10:30:12;;;;;;;5.57;1.20;;;;;;;2.96;100.00;99230.97;5609012;31;35105;-73
2023/12/23 10:33:16;;;;;;;3.83;1.10;;;;;;;3.03;100.00;99229.44;5608967;31;35596;-73
2023/12/23 10:36:20;;;;;;;5.15;1.20;;;;;;;3.04;100.00;99223.22;5609173;31;35106;-73
2023/12/23 10:39:27;;;;;;;4.70;1.40;;;;;;;3.01;100.00;99220.06;5609389;31;33981;-73
2023/12/23 10:42:32;;;;;;;4.22;1.17;;;;;;;3.08;100.00;99226.38;5608911;31;34311;-73
2023/12/23 10:45:35;;;;;;;2.65;1.10;;;;;;;3.08;100.00;99236.03;5608968;31;34078;-72
2023/12/23 10:48:40;;;;;;;6.57;1.30;;;;;;;3.01;100.00;99227.91;5609150;31;34058;-72
2023/12/23 10:51:43;;;;;;;4.40;1.02;;;;;;;3.04;100.00;99235.50;5609004;31;34855;-72
2023/12/23 10:54:48;;;;;;;3.10;0.93;;;;;;;2.88;100.00;99237.94;5608816;31;33626;-72
2023/12/23 10:57:53;;;;;;;4.32;1.20;;;;;;;2.93;100.00;99222.59;5608872;31;34339;-73
2023/12/23 11:00:58;;;;;;;4.85;1.20;;;;;;;2.86;100.00;99218.91;5608916;31;34022;-72
2023/12/23 11:04:02;;;;;;;5.32;1.37;;;;;;;2.91;100.00;99216.69;5608936;31;34035;-73
2023/12/23 11:07:07;;;;;;;2.72;1.25;;;;;;;3.05;100.00;99213.53;5608956;31;33990;-74
2023/12/23 11:10:11;;;;;;;6.57;1.40;;;;;;;2.96;100.00;99215.25;5608858;31;35087;-73
2023/12/23 11:13:15;;;;;;;5.10;1.40;;;;;;;3.00;100.00;99200.09;5607977;31;34122;-74
2023/12/23 11:16:19;;;;;;;5.35;1.20;;;;;;;2.99;100.00;99196.66;5608692;31;34111;-73
2023/12/23 11:19:22;;;;;;;3.95;1.15;;;;;;;2.92;100.00;99186.91;5608388;31;35005;-74
2023/12/23 11:22:29;;;;;;;3.62;0.90;;;;;;;2.86;100.00;99197.97;5608618;31;35117;-74
2023/12/23 11:25:38;;;;;;;4.00;1.27;;;;;;;2.83;100.00;99191.22;5607810;31;34222;-74
2023/12/23 11:28:41;;;;;;;4.57;1.10;;;;;;;2.81;100.00;99194.97;5608692;31;34697;-71
2023/12/23 11:31:44;;;;;;;2.72;1.10;;;;;;;2.66;100.00;99193.84;5607801;31;34733;-73
2023/12/23 11:34:48;;;;;;;4.78;1.20;;;;;;;2.58;100.00;99198.00;5609146;31;34200;-72
2023/12/23 11:38:01;;;;;;;2.92;1.17;;;;;;;2.55;100.00;99187.81;5608847;31;35491;-72
2023/12/23 11:41:05;;;;;;;3.00;1.08;;;;;;;2.41;100.00;99180.44;5608800;31;34148;-72
2023/12/23 11:44:11;;;;;;;3.58;1.15;;;;;;;2.33;100.00;99171.66;5609077;31;34177;-72
2023/12/23 11:47:15;;;;;;;3.28;0.90;;;;;;;2.23;100.00;99163.84;5608681;31;34079;-72
2023/12/23 11:50:18;;;;;;;3.17;0.85;;;;;;;1.69;100.00;99149.72;5608509;31;34022;-72
2023/12/23 11:53:22;;;;;;;4.65;0.93;;;;;;;1.56;100.00;99143.97;5608567;31;34359;-73
2023/12/23 11:56:25;;;;;;;3.72;0.88;;;;;;;1.30;100.00;99135.09;5608693;31;34710;-73
2023/12/23 11:59:29;;;;;;;5.15;1.20;;;;;;;1.27;100.00;99136.19;5609128;31;34093;-74
2023/12/23 12:02:32;;;;;;;3.80;0.90;;;;;;;1.08;100.00;99138.81;5608446;31;34012;-74
2023/12/23 12:05:35;;;;;;;3.62;1.00;;;;;;;1.02;100.00;99122.84;5607756;31;34039;-74
2023/12/23 12:08:38;;;;;;;2.20;0.95;;;;;;;0.86;100.00;99126.88;5608924;31;34221;-74
2023/12/23 12:11:41;;;;;;;2.67;1.00;;;;;;;0.86;100.00;99118.22;5608360;31;35075;-74
2023/12/23 12:14:44;;;;;;;3.92;1.10;;;;;;;0.84;100.00;99112.28;5608567;31;34005;-74
2023/12/23 12:17:47;;;;;;;3.50;1.20;;;;;;;0.75;100.00;99111.34;5607805;31;34018;-74
2023/12/23 12:20:50;;;;;;;4.50;1.27;;;;;;;0.77;100.00;99098.97;5608243;31;33659;-74
2023/12/23 12:23:57;;;;;;;4.12;1.40;;;;;;;0.75;100.00;99092.22;5607705;31;35303;-73
2023/12/23 12:27:02;;;;;;;3.45;1.20;;;;;;;0.69;100.00;99090.16;5608090;31;34230;-74
2023/12/23 12:30:09;;;;;;;4.35;1.23;;;;;;;0.63;100.00;99081.09;5606801;31;32884;-75
2023/12/23 12:33:14;;;;;;;3.37;1.20;;;;;;;0.51;100.00;99074.38;5608065;31;34673;-74
2023/12/23 12:36:18;;;;;;;4.50;1.15;;;;;;;0.58;100.00;99074.66;5607708;31;35114;-74
2023/12/23 12:39:21;;;;;;;3.90;1.30;;;;;;;0.42;100.00;99068.19;5607717;31;34097;-75
2023/12/23 12:42:25;;;;;;;4.37;1.12;;;;;;;0.53;100.00;99063.81;5607912;31;35008;-75
2023/12/23 12:45:28;;;;;;;4.97;1.50;;;;;;;0.44;100.00;99049.75;5607826;31;35092;-75
2023/12/23 12:48:31;;;;;;;2.03;1.30;;;;;;;0.34;100.00;99052.38;5607931;31;35191;-75
2023/12/23 12:51:39;;;;;;;6.28;1.50;;;;;;;0.36;100.00;99050.47;5607710;31;34041;-75
2023/12/23 12:54:42;;;;;;;3.60;1.17;;;;;;;0.39;100.00;99067.59;5607722;31;34896;-75
2023/12/23 12:57:46;;;;;;;5.55;1.48;;;;;;;0.42;100.00;99085.63;5606782;31;34734;-75
2023/12/23 13:00:51;;;;;;;4.97;1.50;;;;;;;0.39;100.00;99088.47;5607334;31;34010;-74
2023/12/23 13:03:54;;;;;;;4.62;1.30;;;;;;;0.32;100.00;99110.84;5606765;31;34148;-75
2023/12/23 13:06:57;;;;;;;4.72;1.33;;;;;;;0.36;100.00;99117.44;5607354;31;34032;-74
2023/12/23 13:10:00;;;;;;;4.28;1.25;;;;;;;0.33;100.00;99112.50;5607543;31;34066;-75
2023/12/23 13:13:03;;;;;;;4.97;1.30;;;;;;;0.32;100.00;99103.88;5607273;31;34080;-74
2023/12/23 13:16:06;;;;;;;4.28;1.37;;;;;;;0.29;100.00;99111.13;5607200;31;34103;-75
2023/12/23 13:19:09;;;;;;;4.57;1.50;;;;;;;0.18;100.00;99106.03;5607204;31;33518;-76
2023/12/23 13:22:12;;;;;;;5.90;1.40;;;;;;;0.15;100.00;99109.69;5607398;31;34409;-75
2023/12/23 13:25:16;;;;;;;3.97;1.70;;;;;;;0.07;100.00;99119.97;5607338;31;34314;-74
2023/12/23 13:28:19;;;;;;;4.60;1.77;;;;;;;0.10;100.00;99121.50;5607284;31;34063;-74
2023/12/23 13:31:22;;;;;;;6.72;2.00;;;;;;;0.06;100.00;99113.09;5607093;31;34085;-73
2023/12/23 13:34:25;;;;;;;6.00;2.05;;;;;;;0.04;100.00;99120.25;5606900;31;34769;-73
2023/12/23 13:37:28;;;;;;;8.88;2.90;;;;;;;0.01;100.00;99123.09;5607007;31;34013;-73
2023/12/23 13:40:31;;;;;;;7.07;2.62;;;;;;;-0.04;100.00;99113.06;5607034;31;34299;-73
2023/12/23 13:43:34;;;;;;;5.25;2.45;;;;;;;-0.08;100.00;99116.06;5610064;31;35428;-73
2023/12/23 13:46:38;;;;;;;11.93;2.92;;;;;;;-0.10;100.00;99110.19;5609759;31;34229;-74
2023/12/23 13:49:41;;;;;;;6.12;3.20;;;;;;;-0.14;100.00;99107.00;5609792;31;34855;-74
2023/12/23 13:52:44;;;;;;;6.97;3.55;;;;;;;-0.14;100.00;99108.78;5609789;31;33930;-74
2023/12/23 13:55:48;;;;;;;7.62;3.55;;;;;;;-0.15;100.00;99101.94;5609616;31;35245;-74
2023/12/23 13:58:50;;;;;;;7.30;4.20;;;;;;;-0.13;100.00;99098.22;5609549;31;34130;-74
2023/12/23 14:01:53;;;;;;;6.28;4.00;;;;;;;-0.19;100.00;99090.09;5609677;31;34355;-73
2023/12/23 14:04:56;;;;;;;6.35;4.30;;;;;;;-0.19;100.00;99096.13;5608906;31;34077;-71
2023/12/23 14:07:59;;;;;;;5.78;4.00;;;;;;;-0.22;100.00;99099.03;5609462;31;35017;-72
2023/12/23 14:11:03;;;;;;;7.07;4.22;;;;;;;-0.16;100.00;99098.50;5609980;31;34249;-72
2023/12/23 14:14:07;;;;;;;7.65;4.50;;;;;;;-0.15;100.00;99100.16;5609956;31;33963;-72
2023/12/23 14:17:10;;;;;;;5.47;4.60;;;;;;;-0.16;100.00;99097.69;5609516;31;34991;-72
2023/12/23 14:20:13;;;;;;;7.72;4.68;;;;;;;-0.18;100.00;99096.97;5609523;31;34071;-71
2023/12/23 14:23:16;;;;;;;7.00;5.05;;;;;;;-0.19;100.00;99101.34;5609588;31;33975;-72
2023/12/23 14:26:19;;;;;;;6.20;4.72;;;;;;;-0.17;100.00;99086.41;5609426;31;34378;-72